Okotoks, Canada
Current Conditions -  °F | °C
As of 9:00 PM on Sunday 21 Dec 2014 (Local Time) from CYYC Reporting Station
Scattered Clouds Scattered Clouds  
Wind Chill: 28°   Ceiling: Unl
Heat Index: 28°   Visibility: 15mi
Dew Point: 23°   Wind: 0mph
Humidity: 80%   Direction: NA
Pressure: 29.6"   Gusts: NA
Location:  50.73°N, 113.97°W
Report Text: CYYC 220400Z 00000KT 15SM SCT110 M02/M05 A2960 RMK AC4 SLP069
Loading
Personal Weather Stations






























Interactive Weather Map New forecast layout! Learn more

10-Day Weather Forecast

Advertisements
Track Severe Weather on mobile